Milligan, Tennessee
Current Conditions -  °F | °C
As of 7:55 AM on Friday 19 Dec 2014 (Local Time) from K0A9 Reporting Station
Overcast Overcast  
Wind Chill: 32°   Ceiling: 5000
Heat Index: 36°   Visibility: 10mi
Dew Point: 21°   Wind: 5mph
Humidity: 56%   Direction: 250°WSW
Pressure: 30.19"   Gusts: NA
Location:  36.3017°N, 82.2994°W
Report Text: K0A9 191255Z AUTO 25004KT 10SM FEW042 OVC050 02/M06 A3019 RMK
Loading
Personal Weather Stations






























Interactive Weather Map New forecast layout! Learn more

10-Day Weather Forecast

Advertisements
Track Severe Weather on mobile